This is the latest recevied weather packets stored in our database for station/object N7SHZ. If no packets are shown the sender has not sent any weather packets the latest 1 day(s).
| Time | Temp. | Humidity | Pressure | Rain* | Wind** | Luminosity | Snow |
|---|---|---|---|---|---|---|---|
| 1778038700 | -0.56° C | 99% | 1028.1 hPa | - | 7.15 m/s, 104° | 0 W/m² | - |
| 1778038397 | -0.56° C | 99% | 1028.1 hPa | - | 5.81 m/s, 98° | 0 W/m² | - |
| 1778038093 | -0.56° C | 99% | 1028.1 hPa | - | 5.36 m/s, 88° | 0 W/m² | - |
| 1778037790 | -0.56° C | 99% | 1027.9 hPa | - | 8.05 m/s, 92° | 0 W/m² | - |
| 1778037487 | -0.56° C | 99% | 1027.9 hPa | - | 8.49 m/s, 100° | 0 W/m² | - |
| 1778037184 | -0.56° C | 99% | 1027.5 hPa | - | 6.71 m/s, 92° | 0 W/m² | - |
| 1778036882 | -0.56° C | 99% | 1027.7 hPa | - | 8.05 m/s, 100° | 0 W/m² | - |
| 1778036580 | -0.56° C | 99% | 1027.7 hPa | - | 7.15 m/s, 97° | 0 W/m² | - |
| 1778036277 | -0.56° C | 99% | 1027.4 hPa | - | 8.49 m/s, 89° | 0 W/m² | - |
| 1778035973 | 0° C | 99% | 1027.4 hPa | - | 8.94 m/s, 84° | 0 W/m² | - |
| 1778035670 | 0.56° C | 98% | 1027.5 hPa | - | 7.6 m/s, 87° | 0 W/m² | - |
| 1778035367 | 1.67° C | 93% | 1027.3 hPa | - | 1.34 m/s, 327° | 0 W/m² | - |
| 1778035063 | 1.67° C | 92% | 1027.1 hPa | - | 2.68 m/s, 340° | 1 W/m² | - |
| 1778034760 | 1.67° C | 94% | 1027.1 hPa | - | 3.13 m/s, 336° | 2 W/m² | - |
| 1778034457 | 1.67° C | 95% | 1027.1 hPa | - | 2.24 m/s, 322° | 4 W/m² | - |
| 1778034155 | 1.67° C | 96% | 1026.9 hPa | - | 1.79 m/s, 321° | 6 W/m² | - |
| 1778033852 | 1.67° C | 96% | 1027 hPa | - | 1.34 m/s, 340° | 9 W/m² | - |
| 1778033549 | 1.67° C | 95% | 1027 hPa | - | 2.24 m/s, 348° | 15 W/m² | - |
| 1778033246 | 1.67° C | 95% | 1027 hPa | - | 5.81 m/s, 315° | 17 W/m² | - |
| 1778032944 | 2.22° C | 96% | 1026.9 hPa | - | 1.34 m/s, 310° | 20 W/m² | - |
| 1778032641 | 2.22° C | 97% | 1027 hPa | - | 3.58 m/s, 328° | 36 W/m² | - |
| 1778032339 | 2.22° C | 97% | 1027 hPa | - | 5.36 m/s, 314° | 28 W/m² | - |
| 1778032035 | 2.22° C | 97% | 1026.9 hPa | - | 4.47 m/s, 296° | 31 W/m² | - |
| 1778031731 | 2.22° C | 99% | 1027 hPa | - | 3.13 m/s, 240° | 33 W/m² | - |
| 1778031429 | 2.22° C | 99% | 1026.7 hPa | - | 2.24 m/s, 326° | 36 W/m² | - |
* Rain since midnight (hover to see other rain measurements)
** Current wind speed in m/s (hover to see current wind gust speed)